JAL2332 RJNO-RJOO
Flight info
| Callsign | JAL2332 |
|---|---|
| Flight time | 0h 29m |
| Altitude | 23000 |
| Route | TSUNO Y38 ROKKO KAMEO OTABE ABENO IKOMA |
| Aircraft | E170/M-SDE3GILORVW/S |
Departure
| Time | 2026-04-29 19:34 |
|---|---|
| Airport | Oki Global Geopark Airport (RJNO) |
Arrival
| Time | 2026-04-29 20:03 |
|---|---|
| Airport | Osaka Itami International Airport (RJOO) |
| Time | Latitude | Longitude | Altitude | Speed | Heading |
|---|---|---|---|---|---|
| 2026-04-29 19:19 | 36.17862 | 133.32989 | 278 ft | 0 kts | 59° |
| 2026-04-29 19:27 | 36.17860 | 133.32985 | 280 ft | 3 kts | 56° |
| 2026-04-29 19:28 | 36.17843 | 133.32983 | 278 ft | 4 kts | 335° |
| 2026-04-29 19:28 | 36.17836 | 133.32987 | 278 ft | 2 kts | 337° |
| 2026-04-29 19:30 | 36.17838 | 133.32985 | 278 ft | 0 kts | 320° |
| 2026-04-29 19:31 | 36.17867 | 133.32950 | 277 ft | 11 kts | 322° |
| 2026-04-29 19:31 | 36.17968 | 133.32886 | 277 ft | 20 kts | 321° |
| 2026-04-29 19:31 | 36.17970 | 133.32723 | 277 ft | 21 kts | 255° |
| 2026-04-29 19:31 | 36.17910 | 133.32541 | 275 ft | 25 kts | 246° |
| 2026-04-29 19:32 | 36.17838 | 133.32335 | 273 ft | 28 kts | 246° |
| 2026-04-29 19:32 | 36.17749 | 133.32083 | 269 ft | 33 kts | 246° |
| 2026-04-29 19:32 | 36.17654 | 133.31810 | 268 ft | 36 kts | 246° |
| 2026-04-29 19:32 | 36.17561 | 133.31547 | 267 ft | 32 kts | 247° |
| 2026-04-29 19:33 | 36.17476 | 133.31382 | 265 ft | 9 kts | 266° |
| 2026-04-29 19:33 | 36.17488 | 133.31359 | 265 ft | 1 kts | 353° |
| 2026-04-29 19:33 | 36.17496 | 133.31363 | 265 ft | 4 kts | 37° |
| 2026-04-29 19:33 | 36.17569 | 133.31546 | 267 ft | 58 kts | 67° |
| 2026-04-29 19:34 | 36.17820 | 133.32377 | 322 ft | 142 kts | 71° |
| 2026-04-29 19:34 | 36.18207 | 133.33575 | 1372 ft | 149 kts | 72° |
| 2026-04-29 19:34 | 36.18190 | 133.34973 | 2108 ft | 195 kts | 112° |
| 2026-04-29 19:34 | 36.17223 | 133.36346 | 2019 ft | 227 kts | 149° |
| 2026-04-29 19:35 | 36.15743 | 133.36952 | 1876 ft | 219 kts | 165° |
| 2026-04-29 19:35 | 36.14281 | 133.37328 | 1749 ft | 212 kts | 166° |
| 2026-04-29 19:35 | 36.12915 | 133.37653 | 2050 ft | 191 kts | 166° |
| 2026-04-29 19:35 | 36.11645 | 133.37971 | 2389 ft | 189 kts | 166° |
| 2026-04-29 19:36 | 36.10331 | 133.38336 | 2795 ft | 203 kts | 165° |
| 2026-04-29 19:36 | 36.08892 | 133.38765 | 3424 ft | 222 kts | 163° |
| 2026-04-29 19:36 | 36.07358 | 133.39347 | 4143 ft | 237 kts | 159° |
| 2026-04-29 19:36 | 36.05771 | 133.40032 | 4879 ft | 250 kts | 158° |
| 2026-04-29 19:37 | 36.04154 | 133.40975 | 5586 ft | 261 kts | 140° |
| 2026-04-29 19:37 | 36.03363 | 133.42110 | 6120 ft | 264 kts | 118° |
| 2026-04-29 19:37 | 36.02739 | 133.45034 | 7209 ft | 270 kts | 98° |
| 2026-04-29 19:37 | 36.02506 | 133.47350 | 7981 ft | 276 kts | 97° |
| 2026-04-29 19:38 | 36.02300 | 133.49755 | 8751 ft | 282 kts | 97° |
| 2026-04-29 19:38 | 36.02102 | 133.52171 | 9501 ft | 287 kts | 97° |
| 2026-04-29 19:38 | 36.01896 | 133.54656 | 10171 ft | 295 kts | 97° |
| 2026-04-29 19:38 | 36.01605 | 133.57215 | 10551 ft | 309 kts | 105° |
| 2026-04-29 19:39 | 36.00894 | 133.59783 | 11056 ft | 318 kts | 114° |
| 2026-04-29 19:39 | 35.99960 | 133.62257 | 11713 ft | 323 kts | 118° |
| 2026-04-29 19:39 | 35.98881 | 133.64710 | 12407 ft | 329 kts | 121° |
| 2026-04-29 19:39 | 35.97695 | 133.67176 | 13122 ft | 335 kts | 122° |
| 2026-04-29 19:40 | 35.96453 | 133.69662 | 13894 ft | 340 kts | 122° |
| 2026-04-29 19:40 | 35.95193 | 133.72146 | 14601 ft | 345 kts | 123° |
| 2026-04-29 19:40 | 35.93830 | 133.74606 | 15326 ft | 350 kts | 128° |
| 2026-04-29 19:40 | 35.92366 | 133.77019 | 16022 ft | 356 kts | 129° |
| 2026-04-29 19:41 | 35.90863 | 133.79459 | 16708 ft | 362 kts | 130° |
| 2026-04-29 19:41 | 35.89312 | 133.81965 | 17410 ft | 368 kts | 131° |
| 2026-04-29 19:41 | 35.87751 | 133.84484 | 18096 ft | 374 kts | 132° |
| 2026-04-29 19:41 | 35.86161 | 133.87050 | 18734 ft | 380 kts | 132° |
| 2026-04-29 19:42 | 35.84532 | 133.89676 | 19322 ft | 387 kts | 133° |
| 2026-04-29 19:42 | 35.84001 | 133.90533 | 19516 ft | 389 kts | 133° |
| 2026-04-29 19:42 | 35.81211 | 133.95028 | 20555 ft | 399 kts | 134° |
| 2026-04-29 19:42 | 35.79525 | 133.97741 | 21161 ft | 405 kts | 134° |
| 2026-04-29 19:43 | 35.77785 | 134.00541 | 21774 ft | 412 kts | 134° |
| 2026-04-29 19:43 | 35.76041 | 134.03345 | 22359 ft | 418 kts | 135° |
| 2026-04-29 19:43 | 35.74272 | 134.06186 | 22962 ft | 423 kts | 135° |
| 2026-04-29 19:43 | 35.72456 | 134.09099 | 23518 ft | 429 kts | 135° |
| 2026-04-29 19:44 | 35.70644 | 134.12005 | 24013 ft | 433 kts | 135° |
| 2026-04-29 19:44 | 35.68793 | 134.14971 | 24500 ft | 437 kts | 136° |
| 2026-04-29 19:44 | 35.66948 | 134.17924 | 24905 ft | 437 kts | 136° |
| 2026-04-29 19:44 | 35.65129 | 134.20844 | 25001 ft | 421 kts | 136° |
| 2026-04-29 19:45 | 35.63307 | 134.23732 | 25078 ft | 439 kts | 136° |
| 2026-04-29 19:45 | 35.61424 | 134.26741 | 25127 ft | 454 kts | 135° |
| 2026-04-29 19:45 | 35.59469 | 134.29868 | 25142 ft | 460 kts | 135° |
| 2026-04-29 19:45 | 35.57514 | 134.32986 | 25141 ft | 468 kts | 135° |
| 2026-04-29 19:46 | 35.55519 | 134.36161 | 25136 ft | 474 kts | 135° |
| 2026-04-29 19:46 | 35.53464 | 134.39428 | 25129 ft | 485 kts | 135° |
| 2026-04-29 19:46 | 35.51411 | 134.42697 | 25130 ft | 485 kts | 135° |
| 2026-04-29 19:46 | 35.49360 | 134.45951 | 25114 ft | 487 kts | 135° |
| 2026-04-29 19:47 | 35.47273 | 134.49264 | 25148 ft | 485 kts | 135° |
| 2026-04-29 19:47 | 35.45219 | 134.52518 | 25073 ft | 483 kts | 135° |
| 2026-04-29 19:47 | 35.43207 | 134.55708 | 24533 ft | 470 kts | 135° |
| 2026-04-29 19:47 | 35.41204 | 134.58870 | 23785 ft | 463 kts | 135° |
| 2026-04-29 19:48 | 35.39258 | 134.61947 | 23082 ft | 454 kts | 135° |
| 2026-04-29 19:48 | 35.37978 | 134.63969 | 22688 ft | 446 kts | 135° |
| 2026-04-29 19:48 | 35.35477 | 134.67914 | 21807 ft | 434 kts | 135° |
| 2026-04-29 19:48 | 35.33655 | 134.70784 | 21127 ft | 428 kts | 134° |
| 2026-04-29 19:49 | 35.31842 | 134.73638 | 20427 ft | 421 kts | 134° |
| 2026-04-29 19:49 | 35.30038 | 134.76477 | 19741 ft | 417 kts | 134° |
| 2026-04-29 19:49 | 35.28280 | 134.79244 | 19100 ft | 412 kts | 134° |
| 2026-04-29 19:49 | 35.26526 | 134.82000 | 18469 ft | 407 kts | 133° |
| 2026-04-29 19:50 | 35.24733 | 134.84599 | 17745 ft | 397 kts | 140° |
| 2026-04-29 19:50 | 35.22756 | 134.86926 | 17114 ft | 387 kts | 143° |
| 2026-04-29 19:50 | 35.20844 | 134.89167 | 16477 ft | 382 kts | 140° |
| 2026-04-29 19:50 | 35.18994 | 134.91502 | 15821 ft | 376 kts | 139° |
| 2026-04-29 19:51 | 35.17205 | 134.93782 | 15222 ft | 370 kts | 138° |
| 2026-04-29 19:51 | 35.16021 | 134.95291 | 14837 ft | 366 kts | 138° |
| 2026-04-29 19:51 | 35.14285 | 134.97506 | 14251 ft | 359 kts | 137° |
| 2026-04-29 19:51 | 35.12005 | 135.00415 | 13496 ft | 350 kts | 137° |
| 2026-04-29 19:52 | 35.10892 | 135.01832 | 13247 ft | 342 kts | 137° |
| 2026-04-29 19:52 | 35.09246 | 135.03926 | 12698 ft | 336 kts | 137° |
| 2026-04-29 19:52 | 35.07639 | 135.05968 | 12116 ft | 333 kts | 136° |
| 2026-04-29 19:52 | 35.06071 | 135.07963 | 11771 ft | 323 kts | 136° |
| 2026-04-29 19:53 | 35.04541 | 135.09909 | 11529 ft | 311 kts | 136° |
| 2026-04-29 19:53 | 35.03056 | 135.11792 | 11156 ft | 305 kts | 136° |
| 2026-04-29 19:53 | 35.01599 | 135.13637 | 10723 ft | 302 kts | 136° |
| 2026-04-29 19:53 | 35.00157 | 135.15466 | 10300 ft | 299 kts | 136° |
| 2026-04-29 19:54 | 34.97292 | 135.19099 | 9404 ft | 295 kts | 135° |
| 2026-04-29 19:54 | 34.95863 | 135.20909 | 8935 ft | 293 kts | 135° |
| 2026-04-29 19:54 | 34.94463 | 135.22679 | 8497 ft | 291 kts | 135° |
| 2026-04-29 19:55 | 34.93051 | 135.24465 | 8065 ft | 289 kts | 135° |
| 2026-04-29 19:55 | 34.91672 | 135.26208 | 7639 ft | 287 kts | 135° |
| 2026-04-29 19:55 | 34.90294 | 135.27948 | 7216 ft | 285 kts | 135° |
| 2026-04-29 19:55 | 34.88911 | 135.29692 | 6687 ft | 283 kts | 135° |
| 2026-04-29 19:56 | 34.87573 | 135.31373 | 6363 ft | 277 kts | 134° |
| 2026-04-29 19:56 | 34.86182 | 135.33007 | 5955 ft | 275 kts | 139° |
| 2026-04-29 19:56 | 34.84717 | 135.34424 | 5763 ft | 265 kts | 146° |
| 2026-04-29 19:56 | 34.83167 | 135.35586 | 5402 ft | 262 kts | 150° |
| 2026-04-29 19:57 | 34.81595 | 135.36670 | 5051 ft | 260 kts | 151° |
| 2026-04-29 19:57 | 34.80012 | 135.37730 | 4803 ft | 254 kts | 152° |
| 2026-04-29 19:57 | 34.78498 | 135.38739 | 4575 ft | 248 kts | 150° |
| 2026-04-29 19:57 | 34.77072 | 135.39905 | 4347 ft | 242 kts | 144° |
| 2026-04-29 19:58 | 34.75746 | 135.41113 | 4289 ft | 231 kts | 143° |
| 2026-04-29 19:58 | 34.74507 | 135.42279 | 4070 ft | 225 kts | 142° |
| 2026-04-29 19:58 | 34.73291 | 135.43485 | 3599 ft | 224 kts | 137° |
| 2026-04-29 19:58 | 34.72197 | 135.44818 | 3185 ft | 222 kts | 134° |
| 2026-04-29 19:59 | 34.71168 | 135.46168 | 3015 ft | 221 kts | 133° |
| 2026-04-29 19:59 | 34.70071 | 135.47638 | 3038 ft | 232 kts | 132° |
| 2026-04-29 19:59 | 34.69053 | 135.49015 | 3020 ft | 210 kts | 132° |
| 2026-04-29 19:59 | 34.68130 | 135.50308 | 2924 ft | 195 kts | 124° |
| 2026-04-29 20:00 | 34.67796 | 135.51817 | 2798 ft | 183 kts | 82° |
| 2026-04-29 20:00 | 34.68307 | 135.53152 | 2695 ft | 168 kts | 55° |
| 2026-04-29 20:00 | 34.69119 | 135.54055 | 2593 ft | 157 kts | 17° |
| 2026-04-29 20:00 | 34.70156 | 135.53902 | 2512 ft | 153 kts | 327° |
| 2026-04-29 20:01 | 34.70980 | 135.53095 | 2450 ft | 153 kts | 315° |
| 2026-04-29 20:01 | 34.71740 | 135.52173 | 2384 ft | 154 kts | 313° |
| 2026-04-29 20:01 | 34.72411 | 135.51174 | 2313 ft | 154 kts | 303° |
| 2026-04-29 20:01 | 34.72999 | 135.50097 | 2152 ft | 157 kts | 305° |
| 2026-04-29 20:02 | 34.73727 | 135.49127 | 1825 ft | 151 kts | 315° |
| 2026-04-29 20:02 | 34.74506 | 135.48290 | 1445 ft | 148 kts | 317° |
| 2026-04-29 20:02 | 34.75288 | 135.47469 | 1015 ft | 151 kts | 315° |
| 2026-04-29 20:02 | 34.75790 | 135.46883 | 798 ft | 149 kts | 315° |
| 2026-04-29 20:03 | 34.76785 | 135.45705 | 310 ft | 150 kts | 315° |
| 2026-04-29 20:03 | 34.77507 | 135.44839 | 102 ft | 135 kts | 311° |
| 2026-04-29 20:03 | 34.78099 | 135.44099 | 47 ft | 107 kts | 316° |
| 2026-04-29 20:03 | 34.78433 | 135.43766 | 44 ft | 37 kts | 336° |
| 2026-04-29 20:04 | 34.78593 | 135.43691 | 45 ft | 24 kts | 342° |
| 2026-04-29 20:04 | 34.78743 | 135.43735 | 45 ft | 22 kts | 36° |
| 2026-04-29 20:04 | 34.78852 | 135.43860 | 43 ft | 19 kts | 45° |
| 2026-04-29 20:04 | 34.78926 | 135.43964 | 45 ft | 13 kts | 45° |
| 2026-04-29 20:05 | 34.79000 | 135.44017 | 46 ft | 13 kts | 21° |
| 2026-04-29 20:05 | 34.79026 | 135.44031 | 46 ft | 0 kts | 23° |